createdAt,value
2017-12-06T00:00:24.488Z,1006.82
2017-12-06T00:01:45.456Z,1006.80
2017-12-06T00:02:24.421Z,1006.83
2017-12-06T00:03:24.411Z,1006.82
2017-12-06T00:04:24.383Z,1006.83
2017-12-06T00:05:24.358Z,1006.87
2017-12-06T00:06:24.328Z,1006.82
2017-12-06T00:07:45.298Z,1006.85
2017-12-06T00:08:24.273Z,1006.81
2017-12-06T00:09:24.262Z,1006.78
2017-12-06T00:10:24.231Z,1006.78
2017-12-06T00:11:24.243Z,1006.81
2017-12-06T00:12:24.213Z,1006.78
2017-12-06T00:13:45.167Z,1006.75
2017-12-06T00:14:24.147Z,1006.74
2017-12-06T00:15:24.119Z,1006.73
2017-12-06T00:16:24.117Z,1006.70
2017-12-06T00:17:24.080Z,1006.68
2017-12-06T00:18:24.062Z,1006.66
2017-12-06T00:19:45.036Z,1006.70
2017-12-06T00:20:24.001Z,1006.68
2017-12-06T00:21:23.990Z,1006.67
2017-12-06T00:22:23.968Z,1006.68
2017-12-06T00:23:23.945Z,1006.63
2017-12-06T00:24:23.920Z,1006.64
2017-12-06T00:25:44.891Z,1006.62
2017-12-06T00:26:23.867Z,1006.64
2017-12-06T00:27:23.885Z,1006.65
2017-12-06T00:28:23.821Z,1006.63
2017-12-06T00:29:23.806Z,1006.65
2017-12-06T00:30:23.789Z,1006.62
2017-12-06T00:31:44.752Z,1006.61
2017-12-06T00:32:23.738Z,1006.63
2017-12-06T00:33:23.716Z,1006.59
2017-12-06T00:34:23.688Z,1006.56
2017-12-06T00:35:23.670Z,1006.58
2017-12-06T00:36:23.637Z,1006.58
2017-12-06T00:37:44.632Z,1006.63
2017-12-06T00:38:23.596Z,1006.61
2017-12-06T00:39:23.567Z,1006.62
2017-12-06T00:40:23.566Z,1006.60
2017-12-06T00:41:23.534Z,1006.62
2017-12-06T00:42:23.512Z,1006.60
2017-12-06T00:43:44.475Z,1006.63
2017-12-06T00:44:23.454Z,1006.61
2017-12-06T00:45:23.437Z,1006.65
2017-12-06T00:46:23.410Z,1006.62
2017-12-06T00:47:23.395Z,1006.59
2017-12-06T00:48:23.373Z,1006.61
2017-12-06T00:49:44.350Z,1006.60
2017-12-06T00:50:23.316Z,1006.58
2017-12-06T00:51:23.298Z,1006.61
2017-12-06T00:52:23.279Z,1006.59
2017-12-06T00:53:23.277Z,1006.58
2017-12-06T00:54:23.235Z,1006.57
2017-12-06T00:55:44.214Z,1006.57
2017-12-06T00:56:23.185Z,1006.65
2017-12-06T00:57:23.170Z,1006.59
2017-12-06T00:58:23.142Z,1006.59
2017-12-06T00:59:23.124Z,1006.57
2017-12-06T01:00:23.087Z,1006.60
2017-12-06T01:01:44.089Z,1006.59
2017-12-06T01:02:23.041Z,1006.56
2017-12-06T01:03:23.029Z,1006.57
2017-12-06T01:04:23.004Z,1006.55
2017-12-06T01:05:22.975Z,1006.57
2017-12-06T01:06:22.957Z,1006.57
2017-12-06T01:07:43.941Z,1006.56
2017-12-06T01:08:22.923Z,1006.61
2017-12-06T01:09:23.396Z,1006.58
2017-12-06T01:10:22.863Z,1006.60
2017-12-06T01:11:22.853Z,1006.57
2017-12-06T01:12:22.821Z,1006.59
2017-12-06T01:13:43.833Z,1006.56
2017-12-06T01:14:22.781Z,1006.58
2017-12-06T01:15:22.745Z,1006.55
2017-12-06T01:16:22.744Z,1006.59
2017-12-06T01:17:22.710Z,1006.56
2017-12-06T01:18:22.681Z,1006.60
2017-12-06T01:19:43.660Z,1006.58
2017-12-06T01:20:22.641Z,1006.58
2017-12-06T01:21:22.615Z,1006.56
2017-12-06T01:22:22.639Z,1006.59
2017-12-06T01:23:22.574Z,1006.59
2017-12-06T01:24:22.551Z,1006.62
2017-12-06T01:25:43.527Z,1006.66
2017-12-06T01:26:22.490Z,1006.69
2017-12-06T01:27:22.484Z,1006.66
2017-12-06T01:28:22.459Z,1006.74
2017-12-06T01:29:22.425Z,1006.73
2017-12-06T01:30:22.391Z,1006.74
2017-12-06T01:31:43.387Z,1006.79
2017-12-06T01:32:22.349Z,1006.75
2017-12-06T01:33:22.385Z,1006.75
2017-12-06T01:34:22.310Z,1006.69
2017-12-06T01:35:22.314Z,1006.67
2017-12-06T01:36:22.259Z,1006.73
2017-12-06T01:37:43.263Z,1006.72
2017-12-06T01:38:22.228Z,1006.66
2017-12-06T01:39:22.195Z,1006.62
2017-12-06T01:40:22.212Z,1006.59
2017-12-06T01:41:22.145Z,1006.61
2017-12-06T01:42:22.143Z,1006.61
2017-12-06T01:43:43.102Z,1006.58
2017-12-06T01:44:22.077Z,1006.61
2017-12-06T01:45:22.074Z,1006.61
2017-12-06T01:46:22.054Z,1006.61
2017-12-06T01:47:22.024Z,1006.61
2017-12-06T01:48:22.000Z,1006.61
2017-12-06T01:49:42.974Z,1006.53
2017-12-06T01:50:21.941Z,1006.55
2017-12-06T01:51:21.915Z,1006.59
2017-12-06T01:52:21.925Z,1006.60
2017-12-06T01:53:21.869Z,1006.58
2017-12-06T01:54:21.862Z,1006.61
2017-12-06T01:55:42.829Z,1006.55
2017-12-06T01:56:21.809Z,1006.56
2017-12-06T01:57:21.806Z,1006.52
2017-12-06T01:58:21.783Z,1006.52
2017-12-06T01:59:21.744Z,1006.55
2017-12-06T02:00:21.704Z,1006.56
2017-12-06T02:01:42.691Z,1006.54
2017-12-06T02:02:21.691Z,1006.53
2017-12-06T02:03:21.634Z,1006.51
2017-12-06T02:04:21.627Z,1006.45
2017-12-06T02:05:21.596Z,1006.47
2017-12-06T02:06:21.589Z,1006.48
2017-12-06T02:07:42.574Z,1006.48
2017-12-06T02:08:21.520Z,1006.47
2017-12-06T02:09:21.518Z,1006.45
2017-12-06T02:10:21.473Z,1006.47
2017-12-06T02:11:21.459Z,1006.45
2017-12-06T02:12:21.431Z,1006.46
2017-12-06T02:13:42.410Z,1006.44
2017-12-06T02:14:21.436Z,1006.47
2017-12-06T02:15:21.371Z,1006.46
2017-12-06T02:16:21.362Z,1006.45
2017-12-06T02:17:21.331Z,1006.41
2017-12-06T02:18:21.302Z,1006.45
2017-12-06T02:19:42.278Z,1006.40
2017-12-06T02:20:21.295Z,1006.35
2017-12-06T02:21:21.226Z,1006.35
2017-12-06T02:22:21.203Z,1006.32
2017-12-06T02:23:21.201Z,1006.36
2017-12-06T02:24:21.160Z,1006.33
2017-12-06T02:25:42.139Z,1006.33
2017-12-06T02:26:21.110Z,1006.28
2017-12-06T02:27:21.080Z,1006.25
2017-12-06T02:28:21.089Z,1006.23
2017-12-06T02:29:21.053Z,1006.27
2017-12-06T02:30:21.032Z,1006.24
2017-12-06T02:31:41.993Z,1006.21
2017-12-06T02:32:21.014Z,1006.20
2017-12-06T02:33:20.969Z,1006.16
2017-12-06T02:34:20.936Z,1006.19
2017-12-06T02:35:20.938Z,1006.18
2017-12-06T02:36:20.877Z,1006.20
2017-12-06T02:37:41.866Z,1006.16
2017-12-06T02:38:20.845Z,1006.10
2017-12-06T02:39:20.815Z,1006.11
2017-12-06T02:40:20.798Z,1006.15
2017-12-06T02:41:20.771Z,1006.13
2017-12-06T02:42:20.763Z,1006.10
2017-12-06T02:43:41.727Z,1006.09
2017-12-06T02:44:20.706Z,1006.05
2017-12-06T02:45:20.693Z,1006.02
2017-12-06T02:46:20.653Z,1006.02
2017-12-06T02:47:20.619Z,1005.96
2017-12-06T02:48:20.652Z,1005.94
2017-12-06T02:49:41.605Z,1005.89
2017-12-06T02:50:20.575Z,1005.88
2017-12-06T02:51:20.541Z,1005.87
2017-12-06T02:52:20.547Z,1005.87
2017-12-06T02:53:20.497Z,1005.85
2017-12-06T02:54:20.472Z,1005.89
2017-12-06T02:55:41.464Z,1005.87
2017-12-06T02:56:20.424Z,1005.86
2017-12-06T02:57:20.429Z,1005.84
2017-12-06T02:58:20.380Z,1005.89
2017-12-06T02:59:20.352Z,1005.88
2017-12-06T03:00:20.352Z,1005.94
2017-12-06T03:01:44.288Z,1005.92
2017-12-06T03:02:20.659Z,1005.95
2017-12-06T03:03:20.501Z,1005.96
2017-12-06T03:04:20.263Z,1005.98
2017-12-06T03:05:20.223Z,1005.97
2017-12-06T03:06:20.187Z,1005.95
2017-12-06T03:07:41.185Z,1005.99
2017-12-06T03:08:20.171Z,1005.98
2017-12-06T03:09:20.135Z,1005.95
2017-12-06T03:10:20.119Z,1005.94
2017-12-06T03:11:20.077Z,1005.98
2017-12-06T03:12:20.075Z,1005.93
2017-12-06T03:13:41.029Z,1005.95
2017-12-06T03:14:20.025Z,1005.92
2017-12-06T03:15:19.994Z,1005.91
2017-12-06T03:16:19.965Z,1005.88
2017-12-06T03:17:19.942Z,1005.90
2017-12-06T03:18:19.940Z,1005.94
2017-12-06T03:19:40.900Z,1005.91
2017-12-06T03:20:19.876Z,1005.94
2017-12-06T03:21:19.853Z,1005.90
2017-12-06T03:22:19.831Z,1005.90
2017-12-06T03:23:19.817Z,1005.90
2017-12-06T03:24:19.788Z,1005.89
2017-12-06T03:25:40.791Z,1005.84
2017-12-06T03:26:19.766Z,1005.86
2017-12-06T03:27:19.741Z,1005.86
2017-12-06T03:28:19.691Z,1005.85
2017-12-06T03:29:19.682Z,1005.90
2017-12-06T03:30:19.652Z,1005.89
2017-12-06T03:31:40.624Z,1005.90
2017-12-06T03:32:19.600Z,1005.88
2017-12-06T03:33:19.610Z,1005.85
2017-12-06T03:34:19.563Z,1005.86
2017-12-06T03:35:23.414Z,1005.86
2017-12-06T03:36:19.542Z,1005.86
2017-12-06T03:37:40.506Z,1005.94
2017-12-06T03:38:19.451Z,1005.92
2017-12-06T03:39:19.458Z,1005.90
2017-12-06T03:40:19.458Z,1005.91
2017-12-06T03:41:19.390Z,1005.93
2017-12-06T03:42:19.392Z,1005.87
2017-12-06T03:43:40.371Z,1005.85
2017-12-06T03:44:19.491Z,1005.88
2017-12-06T03:45:19.372Z,1005.86
2017-12-06T03:46:19.368Z,1005.89
2017-12-06T03:47:19.266Z,1005.95
2017-12-06T03:48:19.242Z,1005.92
2017-12-06T03:49:40.231Z,1005.90
2017-12-06T03:50:19.215Z,1005.88
2017-12-06T03:51:19.158Z,1005.85
2017-12-06T03:52:19.130Z,1005.87
2017-12-06T03:53:26.949Z,1005.86
2017-12-06T03:54:19.164Z,1005.88
2017-12-06T03:55:40.117Z,1005.86
2017-12-06T03:56:19.079Z,1005.90
2017-12-06T03:57:19.045Z,1005.88
2017-12-06T03:58:19.035Z,1005.88
2017-12-06T03:59:18.974Z,1005.83
2017-12-06T04:00:22.974Z,1005.80
2017-12-06T04:01:39.954Z,1005.77
2017-12-06T04:02:19.485Z,1005.80
2017-12-06T04:03:21.488Z,1005.75
2017-12-06T04:04:18.896Z,1005.75
2017-12-06T04:05:18.845Z,1005.75
2017-12-06T04:06:18.818Z,1005.79
2017-12-06T04:07:39.823Z,1005.77
2017-12-06T04:08:18.806Z,1005.77
2017-12-06T04:09:18.776Z,1005.75
2017-12-06T04:10:18.732Z,1005.76
2017-12-06T04:11:19.364Z,1005.78
2017-12-06T04:12:18.719Z,1005.74
2017-12-06T04:13:43.456Z,1005.78
2017-12-06T04:14:18.684Z,1005.74
2017-12-06T04:15:18.646Z,1005.72
2017-12-06T04:16:18.586Z,1005.72
2017-12-06T04:17:18.565Z,1005.71
2017-12-06T04:18:18.581Z,1005.71
2017-12-06T04:19:39.581Z,1005.70
2017-12-06T04:20:18.520Z,1005.66
2017-12-06T04:21:18.507Z,1005.66
2017-12-06T04:22:18.479Z,1005.66
2017-12-06T04:23:18.446Z,1005.68
2017-12-06T04:24:18.439Z,1005.64
2017-12-06T04:25:39.418Z,1005.67
2017-12-06T04:26:18.382Z,1005.68
2017-12-06T04:27:18.356Z,1005.66
2017-12-06T04:28:18.342Z,1005.66
2017-12-06T04:29:21.976Z,1005.63
2017-12-06T04:30:21.962Z,1005.66
2017-12-06T04:31:39.268Z,1005.63
2017-12-06T04:32:18.278Z,1005.64
2017-12-06T04:33:18.225Z,1005.60
2017-12-06T04:34:18.201Z,1005.62
2017-12-06T04:35:18.186Z,1005.63
2017-12-06T04:36:18.175Z,1005.63
2017-12-06T04:37:39.121Z,1005.64
2017-12-06T04:38:18.099Z,1005.66
2017-12-06T04:39:18.056Z,1005.63
2017-12-06T04:40:18.116Z,1005.62
2017-12-06T04:41:18.036Z,1005.64
2017-12-06T04:42:18.034Z,1005.64
2017-12-06T04:43:41.971Z,1005.65
2017-12-06T04:44:17.976Z,1005.60
2017-12-06T04:45:21.525Z,1005.68
2017-12-06T04:46:17.915Z,1005.61
2017-12-06T04:47:17.864Z,1005.58
2017-12-06T04:48:17.861Z,1005.63
2017-12-06T04:49:43.438Z,1005.61
2017-12-06T04:50:21.449Z,1005.52
2017-12-06T04:51:17.786Z,1005.49
2017-12-06T04:52:22.427Z,1005.48
2017-12-06T04:53:17.739Z,1005.47
2017-12-06T04:54:17.710Z,1005.47
2017-12-06T04:55:54.508Z,1005.45
2017-12-06T04:56:17.739Z,1005.43
2017-12-06T04:57:21.447Z,1005.42
2017-12-06T04:58:17.635Z,1005.42
2017-12-06T04:59:17.634Z,1005.47
2017-12-06T05:00:17.598Z,1005.45
2017-12-06T05:01:38.556Z,1005.43
2017-12-06T05:02:17.601Z,1005.43
2017-12-06T05:03:17.502Z,1005.51
2017-12-06T05:04:17.491Z,1005.51
2017-12-06T05:05:25.467Z,1005.51
2017-12-06T05:06:17.434Z,1005.50
2017-12-06T05:07:38.434Z,1005.53
2017-12-06T05:08:19.947Z,1005.52
2017-12-06T05:09:17.399Z,1005.56
2017-12-06T05:10:39.996Z,1005.58
2017-12-06T05:12:51.641Z,1005.53
2017-12-06T05:13:53.004Z,1005.52
2017-12-06T05:14:52.837Z,1005.50
2017-12-06T05:15:53.498Z,1005.50
2017-12-06T05:16:52.466Z,1005.51
2017-12-06T05:17:51.038Z,1005.51
2017-12-06T05:18:50.977Z,1005.51
2017-12-06T05:19:50.825Z,1005.56
2017-12-06T05:20:53.450Z,1005.54
2017-12-06T05:21:50.771Z,1005.54
2017-12-06T05:22:51.457Z,1005.51
2017-12-06T05:23:50.721Z,1005.53
2017-12-06T05:24:50.718Z,1005.57
2017-12-06T05:25:50.679Z,1005.55
2017-12-06T05:26:50.663Z,1005.58
2017-12-06T05:27:50.637Z,1005.50
2017-12-06T05:28:50.606Z,1005.49
2017-12-06T05:29:50.621Z,1005.51
2017-12-06T05:30:50.575Z,1005.52
2017-12-06T05:31:50.536Z,1005.55
2017-12-06T05:32:50.522Z,1005.52
2017-12-06T05:33:50.512Z,1005.48
2017-12-06T05:34:50.465Z,1005.51
2017-12-06T05:35:50.453Z,1005.45
2017-12-06T05:36:50.447Z,1005.43
2017-12-06T05:37:50.395Z,1005.42
2017-12-06T05:38:50.382Z,1005.42
2017-12-06T05:39:50.352Z,1005.40
2017-12-06T05:40:50.332Z,1005.41
2017-12-06T05:41:50.322Z,1005.37
2017-12-06T05:42:50.295Z,1005.35
2017-12-06T05:43:50.276Z,1005.35
2017-12-06T05:44:50.241Z,1005.37
2017-12-06T05:45:50.219Z,1005.31
2017-12-06T05:46:50.209Z,1005.31
2017-12-06T05:47:50.177Z,1005.35
2017-12-06T05:48:50.154Z,1005.35
2017-12-06T05:49:50.197Z,1005.26
2017-12-06T05:50:50.131Z,1005.31
2017-12-06T05:51:50.077Z,1005.29
2017-12-06T05:52:50.058Z,1005.28
2017-12-06T05:53:50.053Z,1005.35
2017-12-06T05:54:50.019Z,1005.29
2017-12-06T05:55:49.992Z,1005.36
2017-12-06T05:56:49.975Z,1005.36
2017-12-06T05:57:51.468Z,1005.34
2017-12-06T05:58:49.918Z,1005.32
2017-12-06T05:59:49.897Z,1005.31
2017-12-06T06:00:49.886Z,1005.27
2017-12-06T06:01:49.851Z,1005.25
2017-12-06T06:02:49.841Z,1005.26
2017-12-06T06:03:49.824Z,1005.27
2017-12-06T06:04:49.793Z,1005.24
2017-12-06T06:05:49.756Z,1005.17
2017-12-06T06:06:49.741Z,1005.16
2017-12-06T06:07:49.726Z,1005.16
2017-12-06T06:08:49.696Z,1005.17
2017-12-06T06:09:49.664Z,1005.10
2017-12-06T06:10:52.457Z,1005.06
2017-12-06T06:11:49.623Z,1005.07
2017-12-06T06:12:49.598Z,1005.07
2017-12-06T06:13:49.576Z,1005.04
2017-12-06T06:14:53.492Z,1005.10
2017-12-06T06:15:49.523Z,1005.09
2017-12-06T06:16:49.509Z,1005.05
2017-12-06T06:17:49.489Z,1005.07
2017-12-06T06:18:49.469Z,1005.04
2017-12-06T06:19:49.439Z,1005.08
2017-12-06T06:20:49.427Z,1005.04
2017-12-06T06:21:49.411Z,1005.01
2017-12-06T06:22:49.367Z,1005.05
2017-12-06T06:23:49.357Z,1005.00
2017-12-06T06:24:49.348Z,1005.02
2017-12-06T06:25:49.305Z,1005.00
2017-12-06T06:26:49.283Z,1005.01
2017-12-06T06:27:49.255Z,1004.97
2017-12-06T06:28:49.239Z,1004.99
2017-12-06T06:29:49.218Z,1005.02
2017-12-06T06:30:49.187Z,1005.00
2017-12-06T06:31:49.176Z,1005.07
2017-12-06T06:32:52.974Z,1005.02
2017-12-06T06:33:49.123Z,1005.07
2017-12-06T06:34:49.092Z,1005.06
2017-12-06T06:35:49.085Z,1005.08
2017-12-06T06:36:49.045Z,1005.08
2017-12-06T06:37:49.030Z,1005.09
2017-12-06T06:38:49.021Z,1005.10
2017-12-06T06:39:48.986Z,1005.09
2017-12-06T06:40:51.489Z,1005.08
2017-12-06T06:41:50.486Z,1005.13
2017-12-06T06:42:48.906Z,1005.16
2017-12-06T06:43:48.895Z,1005.13
2017-12-06T06:44:48.871Z,1005.10
2017-12-06T06:45:52.460Z,1005.09
2017-12-06T06:46:48.846Z,1005.05
2017-12-06T06:47:48.800Z,1005.01
2017-12-06T06:48:48.786Z,1005.06
2017-12-06T06:49:48.766Z,1005.06
2017-12-06T06:50:48.736Z,1005.08
2017-12-06T06:51:48.710Z,1005.02
2017-12-06T06:52:48.706Z,1005.01
2017-12-06T06:53:48.678Z,1004.97
2017-12-06T06:54:51.477Z,1005.01
2017-12-06T06:55:51.464Z,1005.01
2017-12-06T06:56:48.596Z,1004.99
2017-12-06T06:57:48.574Z,1005.00
2017-12-06T06:58:48.552Z,1005.04
2017-12-06T06:59:48.532Z,1005.03
2017-12-06T07:00:48.503Z,1005.05
2017-12-06T07:01:48.483Z,1005.06
2017-12-06T07:02:49.984Z,1005.06
2017-12-06T07:03:48.433Z,1005.07
2017-12-06T07:04:50.983Z,1005.08
2017-12-06T07:05:48.386Z,1005.07
2017-12-06T07:06:48.366Z,1005.12
2017-12-06T07:07:48.365Z,1005.15
2017-12-06T07:08:48.336Z,1005.19
2017-12-06T07:09:48.308Z,1005.23
2017-12-06T07:10:48.295Z,1005.18
2017-12-06T07:11:48.251Z,1005.23
2017-12-06T07:12:49.990Z,1005.22
2017-12-06T07:13:48.220Z,1005.19
2017-12-06T07:14:48.183Z,1005.21
2017-12-06T07:15:48.161Z,1005.20
2017-12-06T07:16:48.153Z,1005.19
2017-12-06T07:17:48.124Z,1005.17
2017-12-06T07:18:48.091Z,1005.17
2017-12-06T07:19:48.063Z,1005.22
2017-12-06T07:20:50.968Z,1005.27
2017-12-06T07:21:48.024Z,1005.24
2017-12-06T07:22:47.998Z,1005.27
2017-12-06T07:23:49.480Z,1005.30
2017-12-06T07:24:47.982Z,1005.27
2017-12-06T07:25:47.967Z,1005.28
2017-12-06T07:26:49.509Z,1005.31
2017-12-06T07:27:49.484Z,1005.29
2017-12-06T07:28:47.868Z,1005.33
2017-12-06T07:29:47.858Z,1005.37
2017-12-06T07:30:47.819Z,1005.36
2017-12-06T07:31:47.803Z,1005.40
2017-12-06T07:32:47.781Z,1005.37
2017-12-06T07:33:47.763Z,1005.35
2017-12-06T07:34:47.734Z,1005.39
2017-12-06T07:35:47.709Z,1005.38
2017-12-06T07:36:47.691Z,1005.41
2017-12-06T07:37:47.660Z,1005.43
2017-12-06T07:38:47.632Z,1005.46
2017-12-06T07:39:47.622Z,1005.42
2017-12-06T07:40:47.601Z,1005.41
2017-12-06T07:41:50.533Z,1005.50
2017-12-06T07:42:47.551Z,1005.51
2017-12-06T07:43:47.550Z,1005.47
2017-12-06T07:44:47.532Z,1005.53
2017-12-06T07:45:47.488Z,1005.53
2017-12-06T07:46:47.479Z,1005.55
2017-12-06T07:47:47.452Z,1005.56
2017-12-06T07:48:47.407Z,1005.60
2017-12-06T07:49:47.393Z,1005.65
2017-12-06T07:50:47.370Z,1005.61
2017-12-06T07:51:47.342Z,1005.62
2017-12-06T07:52:47.333Z,1005.61
2017-12-06T07:53:47.300Z,1005.59
2017-12-06T07:54:47.289Z,1005.62
2017-12-06T07:55:47.264Z,1005.57
2017-12-06T07:56:47.311Z,1005.54
2017-12-06T07:57:47.215Z,1005.56
2017-12-06T07:58:47.195Z,1005.57
2017-12-06T07:59:47.175Z,1005.56
2017-12-06T08:00:47.136Z,1005.58
2017-12-06T08:01:47.120Z,1005.56
2017-12-06T08:02:47.112Z,1005.55
2017-12-06T08:03:47.082Z,1005.55
2017-12-06T08:04:47.054Z,1005.56
2017-12-06T08:05:47.043Z,1005.55
2017-12-06T08:06:46.997Z,1005.53
2017-12-06T08:07:46.988Z,1005.53
2017-12-06T08:08:46.985Z,1005.50
2017-12-06T08:09:46.933Z,1005.51
2017-12-06T08:10:46.908Z,1005.51
2017-12-06T08:11:46.893Z,1005.51
2017-12-06T08:12:49.483Z,1005.53
2017-12-06T08:13:46.844Z,1005.56
2017-12-06T08:14:49.485Z,1005.55
2017-12-06T08:15:46.805Z,1005.52
2017-12-06T08:16:46.780Z,1005.52
2017-12-06T08:17:46.752Z,1005.54
2017-12-06T08:18:46.751Z,1005.57
2017-12-06T08:19:46.702Z,1005.54
2017-12-06T08:20:48.484Z,1005.57
2017-12-06T08:21:46.682Z,1005.53
2017-12-06T08:22:46.681Z,1005.56
2017-12-06T08:23:48.503Z,1005.55
2017-12-06T08:24:49.480Z,1005.52
2017-12-06T08:25:46.560Z,1005.54
2017-12-06T08:26:46.552Z,1005.53
2017-12-06T08:27:46.527Z,1005.52
2017-12-06T08:28:46.511Z,1005.52
2017-12-06T08:29:46.489Z,1005.49
2017-12-06T08:30:46.454Z,1005.49
2017-12-06T08:31:46.453Z,1005.48
2017-12-06T08:32:46.426Z,1005.52
2017-12-06T08:33:46.437Z,1005.51
2017-12-06T08:34:48.991Z,1005.49
2017-12-06T08:35:46.348Z,1005.54
2017-12-06T08:36:46.353Z,1005.48
2017-12-06T08:37:46.331Z,1005.47
2017-12-06T08:38:46.291Z,1005.48
2017-12-06T08:39:46.250Z,1005.50
2017-12-06T08:40:47.999Z,1005.52
2017-12-06T08:41:46.207Z,1005.48
2017-12-06T08:42:46.190Z,1005.52
2017-12-06T08:43:46.183Z,1005.53
2017-12-06T08:44:48.009Z,1005.55
2017-12-06T08:45:48.991Z,1005.52
2017-12-06T08:46:46.097Z,1005.55
2017-12-06T08:47:46.105Z,1005.51
2017-12-06T08:48:46.055Z,1005.52
2017-12-06T08:49:46.064Z,1005.49
2017-12-06T08:50:46.032Z,1005.55
2017-12-06T08:51:45.974Z,1005.54
2017-12-06T08:52:45.965Z,1005.54
2017-12-06T08:53:45.934Z,1005.54
2017-12-06T08:54:48.510Z,1005.53
2017-12-06T08:55:45.894Z,1005.53
2017-12-06T08:56:45.875Z,1005.51
2017-12-06T08:57:45.852Z,1005.49
2017-12-06T08:58:45.818Z,1005.48
2017-12-06T08:59:45.807Z,1005.49
2017-12-06T09:00:48.526Z,1005.47
2017-12-06T09:01:45.771Z,1005.41
2017-12-06T09:02:45.731Z,1005.43
2017-12-06T09:03:45.711Z,1005.42
2017-12-06T09:04:45.712Z,1005.42
2017-12-06T09:05:45.656Z,1005.39
2017-12-06T09:06:45.656Z,1005.33
2017-12-06T09:07:48.497Z,1005.37
2017-12-06T09:08:45.597Z,1005.37
2017-12-06T09:09:48.494Z,1005.40
2017-12-06T09:10:45.561Z,1005.41
2017-12-06T09:11:47.504Z,1005.43
2017-12-06T09:12:45.504Z,1005.42
2017-12-06T09:13:45.497Z,1005.46
2017-12-06T09:14:45.461Z,1005.38
2017-12-06T09:15:45.446Z,1005.41
2017-12-06T09:16:45.423Z,1005.44
2017-12-06T09:17:45.406Z,1005.40
2017-12-06T09:18:45.386Z,1005.42
2017-12-06T09:19:45.348Z,1005.38
2017-12-06T09:20:45.357Z,1005.43
2017-12-06T09:21:45.299Z,1005.40
2017-12-06T09:22:45.275Z,1005.37
2017-12-06T09:23:48.009Z,1005.40
2017-12-06T09:24:48.004Z,1005.34
2017-12-06T09:25:45.231Z,1005.36
2017-12-06T09:26:45.188Z,1005.43
2017-12-06T09:27:45.176Z,1005.40
2017-12-06T09:28:45.160Z,1005.45
2017-12-06T09:29:45.120Z,1005.44
2017-12-06T09:30:49.005Z,1005.40
2017-12-06T09:31:45.075Z,1005.45
2017-12-06T09:32:45.083Z,1005.43
2017-12-06T09:33:45.036Z,1005.45
2017-12-06T09:34:45.010Z,1005.46
2017-12-06T09:35:47.530Z,1005.49
2017-12-06T09:36:44.964Z,1005.46
2017-12-06T09:37:44.940Z,1005.49
2017-12-06T09:38:44.921Z,1005.53
2017-12-06T09:39:44.919Z,1005.51
2017-12-06T09:40:44.880Z,1005.48
2017-12-06T09:41:44.871Z,1005.50
2017-12-06T09:42:44.852Z,1005.51
2017-12-06T09:43:44.817Z,1005.52
2017-12-06T09:44:47.533Z,1005.51
2017-12-06T09:45:47.515Z,1005.47
2017-12-06T09:46:44.746Z,1005.51
2017-12-06T09:47:44.719Z,1005.50
2017-12-06T09:48:44.696Z,1005.46
2017-12-06T09:49:46.534Z,1005.51
2017-12-06T09:50:44.671Z,1005.50
2017-12-06T09:51:44.633Z,1005.47
2017-12-06T09:52:44.602Z,1005.50
2017-12-06T09:53:44.584Z,1005.48
2017-12-06T09:54:44.563Z,1005.48
2017-12-06T09:55:44.543Z,1005.48
2017-12-06T09:56:44.527Z,1005.48
2017-12-06T09:57:44.509Z,1005.41
2017-12-06T09:58:47.009Z,1005.47
2017-12-06T09:59:44.453Z,1005.51
2017-12-06T10:00:44.439Z,1005.59
2017-12-06T10:01:44.407Z,1005.53
2017-12-06T10:02:44.399Z,1005.53
2017-12-06T10:03:46.017Z,1005.47
2017-12-06T10:04:44.359Z,1005.49
2017-12-06T10:05:44.314Z,1005.52
2017-12-06T10:06:44.285Z,1005.47
2017-12-06T10:07:47.031Z,1005.49
2017-12-06T10:08:44.275Z,1005.43
2017-12-06T10:09:44.260Z,1005.43
2017-12-06T10:10:44.208Z,1005.41
2017-12-06T10:11:44.195Z,1005.39
2017-12-06T10:12:44.160Z,1005.40
2017-12-06T10:13:44.157Z,1005.39
2017-12-06T10:14:44.127Z,1005.39
2017-12-06T10:15:44.117Z,1005.34
2017-12-06T10:16:44.076Z,1005.32
2017-12-06T10:17:44.066Z,1005.32
2017-12-06T10:18:44.023Z,1005.31
2017-12-06T10:19:43.996Z,1005.26
2017-12-06T10:20:43.987Z,1005.24
2017-12-06T10:21:43.976Z,1005.27
2017-12-06T10:22:47.512Z,1005.25
2017-12-06T10:23:43.919Z,1005.20
2017-12-06T10:24:46.508Z,1005.23
2017-12-06T10:25:43.872Z,1005.20
2017-12-06T10:26:43.851Z,1005.15
2017-12-06T10:27:43.838Z,1005.17
2017-12-06T10:28:43.812Z,1005.16
2017-12-06T10:29:46.512Z,1005.18
2017-12-06T10:30:43.760Z,1005.18
2017-12-06T10:31:43.738Z,1005.16
2017-12-06T10:32:43.709Z,1005.16
2017-12-06T10:33:43.692Z,1005.16
2017-12-06T10:34:43.668Z,1005.16
2017-12-06T10:35:43.653Z,1005.15
2017-12-06T10:36:43.634Z,1005.10
2017-12-06T10:37:43.605Z,1005.16
2017-12-06T10:38:43.576Z,1005.11
2017-12-06T10:39:43.565Z,1005.13
2017-12-06T10:40:43.537Z,1005.12
2017-12-06T10:41:43.517Z,1005.10
2017-12-06T10:42:43.486Z,1005.08
2017-12-06T10:43:43.457Z,1005.04
2017-12-06T10:44:46.018Z,1005.05
2017-12-06T10:45:43.423Z,1005.04
2017-12-06T10:46:43.420Z,1005.02
2017-12-06T10:47:43.413Z,1005.01
2017-12-06T10:48:43.355Z,1005.02
2017-12-06T10:49:43.339Z,1005.01
2017-12-06T10:50:43.304Z,1005.03
2017-12-06T10:51:43.293Z,1004.99
2017-12-06T10:52:43.266Z,1004.97
2017-12-06T10:53:43.299Z,1004.99
2017-12-06T10:54:43.225Z,1004.94
2017-12-06T10:55:43.191Z,1004.94
2017-12-06T10:56:43.175Z,1004.97
2017-12-06T10:57:43.163Z,1004.97
2017-12-06T10:58:43.133Z,1004.95
2017-12-06T10:59:43.129Z,1005.00
2017-12-06T11:00:43.094Z,1004.93
2017-12-06T11:01:43.061Z,1004.91
2017-12-06T11:02:43.055Z,1004.94
2017-12-06T11:03:43.036Z,1004.90
2017-12-06T11:04:43.027Z,1004.94
2017-12-06T11:05:42.972Z,1004.95
2017-12-06T11:06:42.963Z,1004.89
2017-12-06T11:07:42.931Z,1004.86
2017-12-06T11:08:42.911Z,1004.86
2017-12-06T11:09:42.893Z,1004.79
2017-12-06T11:10:42.882Z,1004.80
2017-12-06T11:11:42.851Z,1004.77
2017-12-06T11:12:42.827Z,1004.76
2017-12-06T11:13:42.808Z,1004.73
2017-12-06T11:14:42.788Z,1004.75
2017-12-06T11:15:42.755Z,1004.75
2017-12-06T11:16:42.737Z,1004.75
2017-12-06T11:17:45.536Z,1004.72
2017-12-06T11:18:42.697Z,1004.74
2017-12-06T11:19:42.681Z,1004.69
2017-12-06T11:20:44.550Z,1004.71
2017-12-06T11:21:42.624Z,1004.69
2017-12-06T11:22:42.611Z,1004.69
2017-12-06T11:23:42.577Z,1004.65
2017-12-06T11:24:42.554Z,1004.66
2017-12-06T11:25:42.552Z,1004.62
2017-12-06T11:26:42.515Z,1004.60
2017-12-06T11:27:42.500Z,1004.62
2017-12-06T11:28:42.470Z,1004.61
2017-12-06T11:29:42.458Z,1004.64
2017-12-06T11:30:42.427Z,1004.59
2017-12-06T11:31:42.397Z,1004.60
2017-12-06T11:32:42.381Z,1004.58
2017-12-06T11:33:42.358Z,1004.56
2017-12-06T11:34:42.342Z,1004.54
2017-12-06T11:35:45.024Z,1004.55
2017-12-06T11:36:45.044Z,1004.57
2017-12-06T11:37:42.269Z,1004.55
2017-12-06T11:38:50.531Z,1004.55
2017-12-06T11:40:37.863Z,1004.54
2017-12-06T11:41:37.624Z,1004.53
2017-12-06T11:42:37.588Z,1004.51
2017-12-06T11:43:37.829Z,1004.50
2017-12-06T11:44:37.506Z,1004.54
2017-12-06T11:45:37.507Z,1004.54
2017-12-06T11:46:37.482Z,1004.51
2017-12-06T11:47:37.448Z,1004.49
2017-12-06T11:48:37.450Z,1004.46
2017-12-06T11:49:37.404Z,1004.47
2017-12-06T11:50:39.153Z,1004.52
2017-12-06T11:51:37.349Z,1004.54
2017-12-06T11:52:37.338Z,1004.51
2017-12-06T11:53:37.308Z,1004.54
2017-12-06T11:54:37.316Z,1004.51
2017-12-06T11:55:37.271Z,1004.50
2017-12-06T11:56:37.282Z,1004.52
2017-12-06T11:57:37.242Z,1004.51
2017-12-06T11:58:37.195Z,1004.52
2017-12-06T11:59:37.196Z,1004.53
2017-12-06T12:00:37.157Z,1004.50
2017-12-06T12:01:37.147Z,1004.51
2017-12-06T12:02:37.124Z,1004.49
2017-12-06T12:03:37.092Z,1004.50
2017-12-06T12:04:37.092Z,1004.50
2017-12-06T12:05:37.053Z,1004.53
2017-12-06T12:06:37.027Z,1004.49
2017-12-06T12:07:37.007Z,1004.44